createdAt,value
2017-01-23T00:00:41.085Z,-5.1
2017-01-23T00:01:44.028Z,-5.1
2017-01-23T00:02:46.977Z,-5.2
2017-01-23T00:03:49.928Z,-5.2
2017-01-23T00:04:53.374Z,-5.1
2017-01-23T00:05:56.323Z,-5.2
2017-01-23T00:06:59.333Z,-5.2
2017-01-23T00:08:02.280Z,-5.2
2017-01-23T00:09:05.224Z,-5.2
2017-01-23T00:10:08.677Z,-5.2
2017-01-23T00:11:11.643Z,-5.2
2017-01-23T00:12:14.594Z,-5.2
2017-01-23T00:13:17.540Z,-5.2
2017-01-23T00:14:20.989Z,-5.2
2017-01-23T00:15:23.931Z,-5.2
2017-01-23T00:16:26.917Z,-5.2
2017-01-23T00:17:29.857Z,-5.2
2017-01-23T00:18:33.305Z,-5.2
2017-01-23T00:19:36.247Z,-5.3
2017-01-23T00:20:39.190Z,-5.3
2017-01-23T00:21:42.136Z,-5.3
2017-01-23T00:22:45.579Z,-5.3
2017-01-23T00:23:48.523Z,-5.3
2017-01-23T00:24:51.465Z,-5.2
2017-01-23T00:25:55.110Z,-5.2
2017-01-23T00:26:57.552Z,-5.2
2017-01-23T00:28:00.500Z,-5.3
2017-01-23T00:29:03.952Z,-5.3
2017-01-23T00:30:06.898Z,-5.3
2017-01-23T00:31:09.839Z,-5.3
2017-01-23T00:32:12.790Z,-5.3
2017-01-23T00:33:16.237Z,-5.3
2017-01-23T00:34:19.184Z,-5.3
2017-01-23T00:35:22.126Z,-5.3
2017-01-23T00:36:25.093Z,-5.3
2017-01-23T00:37:28.541Z,-5.3
2017-01-23T00:39:34.397Z,-5.3
2017-01-23T00:40:37.345Z,-5.2
2017-01-23T00:41:40.791Z,-5.2
2017-01-23T00:42:43.742Z,-5.2
2017-01-23T00:43:46.685Z,-5.3
2017-01-23T00:44:49.631Z,-5.3
2017-01-23T00:45:53.078Z,-5.3
2017-01-23T00:46:56.023Z,-5.3
2017-01-23T00:47:58.968Z,-5.3
2017-01-23T00:49:01.915Z,-5.3
2017-01-23T00:50:05.358Z,-5.3
2017-01-23T00:51:08.306Z,-5.3
2017-01-23T00:52:11.253Z,-5.3
2017-01-23T00:53:14.199Z,-5.3
2017-01-23T00:54:17.649Z,-5.3
2017-01-23T00:55:20.593Z,-5.3
2017-01-23T00:56:23.536Z,-5.3
2017-01-23T00:57:26.477Z,-5.3
2017-01-23T00:58:29.931Z,-5.3
2017-01-23T00:59:32.943Z,-5.3
2017-01-23T01:00:35.886Z,-5.3
2017-01-23T01:01:38.836Z,-5.3
2017-01-23T01:02:41.786Z,-5.3
2017-01-23T01:03:45.239Z,-5.3
2017-01-23T01:04:48.186Z,-5.3
2017-01-23T01:05:51.130Z,-5.4
2017-01-23T01:06:54.073Z,-5.3
2017-01-23T01:07:57.523Z,-5.3
2017-01-23T01:09:00.464Z,-5.4
2017-01-23T01:10:03.413Z,-5.3
2017-01-23T01:11:06.359Z,-5.3
2017-01-23T01:12:09.806Z,-5.3
2017-01-23T01:13:12.757Z,-5.3
2017-01-23T01:14:15.703Z,-5.4
2017-01-23T01:15:18.647Z,-5.4
2017-01-23T01:16:22.095Z,-5.4
2017-01-23T01:17:25.041Z,-5.4
2017-01-23T01:18:27.986Z,-5.4
2017-01-23T01:19:30.927Z,-5.4
2017-01-23T01:20:34.372Z,-5.4
2017-01-23T01:21:37.322Z,-5.4
2017-01-23T01:22:40.266Z,-5.5
2017-01-23T01:23:43.211Z,-5.5
2017-01-23T01:25:49.570Z,-5.5
2017-01-23T01:26:52.513Z,-5.5
2017-01-23T01:27:55.458Z,-5.5
2017-01-23T01:28:58.913Z,-5.5
2017-01-23T01:30:01.854Z,-5.5
2017-01-23T01:31:04.800Z,-5.5
2017-01-23T01:32:07.744Z,-5.5
2017-01-23T01:33:11.197Z,-5.5
2017-01-23T01:34:14.142Z,-5.5
2017-01-23T01:35:17.084Z,-5.5
2017-01-23T01:36:20.028Z,-5.5
2017-01-23T01:37:23.479Z,-5.5
2017-01-23T01:38:26.423Z,-5.5
2017-01-23T01:39:29.369Z,-5.5
2017-01-23T01:40:32.322Z,-5.5
2017-01-23T01:41:35.265Z,-5.5
2017-01-23T01:42:38.712Z,-5.5
2017-01-23T01:43:41.667Z,-5.5
2017-01-23T01:44:44.610Z,-5.5
2017-01-23T01:45:47.562Z,-5.5
2017-01-23T01:46:51.012Z,-5.5
2017-01-23T01:47:53.956Z,-5.5
2017-01-23T01:48:56.902Z,-5.5
2017-01-23T01:49:59.874Z,-5.5
2017-01-23T01:51:03.348Z,-5.5
2017-01-23T01:52:06.292Z,-5.5
2017-01-23T01:53:09.271Z,-5.5
2017-01-23T01:54:12.219Z,-5.5
2017-01-23T01:55:15.163Z,-5.5
2017-01-23T01:56:18.619Z,-5.5
2017-01-23T01:57:21.571Z,-5.5
2017-01-23T01:58:24.543Z,-5.5
2017-01-23T01:59:27.486Z,-5.5
2017-01-23T02:00:30.431Z,-5.5
2017-01-23T02:01:33.879Z,-5.5
2017-01-23T02:02:36.826Z,-5.5
2017-01-23T02:03:39.770Z,-5.5
2017-01-23T02:04:42.715Z,-5.5
2017-01-23T02:05:46.169Z,-5.5
2017-01-23T02:06:49.111Z,-5.5
2017-01-23T02:07:52.125Z,-5.5
2017-01-23T02:08:55.096Z,-5.5
2017-01-23T02:09:58.109Z,-5.5
2017-01-23T02:11:01.054Z,-5.5
2017-01-23T02:12:04.505Z,-5.5
2017-01-23T02:14:10.359Z,-5.5
2017-01-23T02:15:13.311Z,-5.5
2017-01-23T02:16:16.765Z,-5.5
2017-01-23T02:17:19.710Z,-5.6
2017-01-23T02:18:22.660Z,-5.6
2017-01-23T02:19:25.609Z,-5.5
2017-01-23T02:20:29.058Z,-5.5
2017-01-23T02:21:32.003Z,-5.5
2017-01-23T02:22:34.947Z,-5.5
2017-01-23T02:23:37.891Z,-5.5
2017-01-23T02:24:41.344Z,-5.6
2017-01-23T02:26:47.204Z,-5.6
2017-01-23T02:27:50.151Z,-5.6
2017-01-23T02:28:53.168Z,-5.6
2017-01-23T02:29:56.617Z,-5.6
2017-01-23T02:30:59.567Z,-5.6
2017-01-23T02:32:02.514Z,-5.6
2017-01-23T02:33:05.456Z,-5.6
2017-01-23T02:34:08.936Z,-5.6
2017-01-23T02:35:11.891Z,-5.6
2017-01-23T02:37:17.743Z,-5.6
2017-01-23T02:38:21.196Z,-5.6
2017-01-23T02:39:24.141Z,-5.6
2017-01-23T02:40:27.086Z,-5.6
2017-01-23T02:41:30.032Z,-5.6
2017-01-23T02:42:32.976Z,-5.6
2017-01-23T02:43:36.421Z,-5.6
2017-01-23T02:44:39.395Z,-5.6
2017-01-23T02:45:42.341Z,-5.6
2017-01-23T02:46:45.293Z,-5.6
2017-01-23T02:47:48.742Z,-5.6
2017-01-23T02:48:51.690Z,-5.6
2017-01-23T02:49:54.639Z,-5.6
2017-01-23T02:50:57.581Z,-5.6
2017-01-23T02:52:01.034Z,-5.6
2017-01-23T02:53:03.985Z,-5.6
2017-01-23T02:54:06.928Z,-5.6
2017-01-23T02:55:09.875Z,-5.6
2017-01-23T02:56:12.828Z,-5.6
2017-01-23T02:57:16.275Z,-5.6
2017-01-23T02:58:19.288Z,-5.6
2017-01-23T02:59:22.235Z,-5.6
2017-01-23T03:00:25.249Z,-5.6
2017-01-23T03:01:28.193Z,-5.6
2017-01-23T03:02:31.644Z,-5.6
2017-01-23T03:03:34.593Z,-5.6
2017-01-23T03:04:37.540Z,-5.6
2017-01-23T03:05:40.490Z,-5.6
2017-01-23T03:06:43.628Z,-5.6
2017-01-23T03:07:46.574Z,-5.6
2017-01-23T03:08:50.020Z,-5.7
2017-01-23T03:09:52.967Z,-5.7
2017-01-23T03:10:55.915Z,-5.7
2017-01-23T03:11:58.891Z,-5.7
2017-01-23T03:13:01.844Z,-5.7
2017-01-23T03:14:05.297Z,-5.7
2017-01-23T03:15:08.243Z,-5.7
2017-01-23T03:16:11.188Z,-5.7
2017-01-23T03:17:14.134Z,-5.7
2017-01-23T03:18:17.592Z,-5.7
2017-01-23T03:19:20.543Z,-5.7
2017-01-23T03:20:23.487Z,-5.8
2017-01-23T03:21:26.437Z,-5.8
2017-01-23T03:22:29.387Z,-5.8
2017-01-23T03:23:32.841Z,-5.8
2017-01-23T03:24:35.796Z,-5.8
2017-01-23T03:25:38.743Z,-5.8
2017-01-23T03:26:41.694Z,-5.8
2017-01-23T03:27:45.164Z,-5.8
2017-01-23T03:28:48.110Z,-5.8
2017-01-23T03:29:51.057Z,-5.8
2017-01-23T03:30:54.010Z,-5.8
2017-01-23T03:31:56.958Z,-5.8
2017-01-23T03:33:00.408Z,-5.8
2017-01-23T03:34:03.354Z,-5.8
2017-01-23T03:35:06.299Z,-5.8
2017-01-23T03:36:09.249Z,-5.8
2017-01-23T03:37:12.697Z,-5.9
2017-01-23T03:38:15.671Z,-5.8
2017-01-23T03:39:18.621Z,-5.8
2017-01-23T03:40:21.571Z,-5.8
2017-01-23T03:41:24.482Z,-5.8
2017-01-23T03:42:27.594Z,-5.8
2017-01-23T03:43:31.048Z,-5.8
2017-01-23T03:44:33.998Z,-5.8
2017-01-23T03:45:36.943Z,-5.8
2017-01-23T03:46:39.892Z,-5.8
2017-01-23T03:47:42.841Z,-5.8
2017-01-23T03:48:46.295Z,-5.8
2017-01-23T03:49:49.249Z,-5.8
2017-01-23T03:50:52.191Z,-5.9
2017-01-23T03:51:55.135Z,-5.9
2017-01-23T03:52:58.581Z,-5.9
2017-01-23T03:54:01.698Z,-5.9
2017-01-23T03:55:04.646Z,-5.9
2017-01-23T03:56:07.596Z,-5.9
2017-01-23T03:57:10.705Z,-5.9
2017-01-23T03:58:13.653Z,-5.9
2017-01-23T03:59:16.600Z,-5.9
2017-01-23T04:00:19.548Z,-5.9
2017-01-23T04:01:22.995Z,-5.9
2017-01-23T04:02:25.972Z,-6
2017-01-23T04:03:28.920Z,-6
2017-01-23T04:04:31.867Z,-6
2017-01-23T04:05:35.315Z,-6
2017-01-23T04:06:38.263Z,-6
2017-01-23T04:07:41.213Z,-6
2017-01-23T04:08:44.227Z,-6
2017-01-23T04:10:50.588Z,-6
2017-01-23T04:11:53.533Z,-6
2017-01-23T04:12:56.484Z,-6
2017-01-23T04:13:59.432Z,-6
2017-01-23T04:15:02.377Z,-6
2017-01-23T04:16:05.834Z,-6
2017-01-23T04:17:08.780Z,-6
2017-01-23T04:18:11.728Z,-6
2017-01-23T04:19:14.682Z,-6
2017-01-23T04:20:18.131Z,-6
2017-01-23T04:21:21.077Z,-6
2017-01-23T04:22:24.023Z,-6
2017-01-23T04:23:26.972Z,-6
2017-01-23T04:23:57.210Z,-6
2017-01-23T04:24:29.960Z,-6
2017-01-23T04:25:33.417Z,-6
2017-01-23T04:26:36.365Z,-6
2017-01-23T04:27:39.314Z,-6
2017-01-23T04:28:42.345Z,-6
2017-01-23T04:29:45.289Z,-6
2017-01-23T04:30:48.230Z,-6
2017-01-23T04:31:51.680Z,-6
2017-01-23T04:32:54.636Z,-6
2017-01-23T04:33:57.580Z,-6
2017-01-23T04:35:00.697Z,-6
2017-01-23T04:36:03.647Z,-6
2017-01-23T04:37:06.595Z,-6
2017-01-23T04:38:10.044Z,-6
2017-01-23T04:39:12.988Z,-6
2017-01-23T04:40:15.937Z,-6
2017-01-23T04:41:18.885Z,-6
2017-01-23T04:42:21.831Z,-6
2017-01-23T04:43:25.276Z,-6
2017-01-23T04:44:28.222Z,-6
2017-01-23T04:45:31.164Z,-6
2017-01-23T04:46:34.112Z,-6
2017-01-23T04:47:37.566Z,-6
2017-01-23T04:48:40.518Z,-6
2017-01-23T04:49:43.466Z,-6
2017-01-23T04:50:46.408Z,-6
2017-01-23T04:51:49.859Z,-6
2017-01-23T04:52:52.813Z,-6
2017-01-23T04:53:55.756Z,-6
2017-01-23T04:54:58.704Z,-6
2017-01-23T04:56:01.651Z,-6
2017-01-23T04:57:05.102Z,-6
2017-01-23T04:58:08.053Z,-6
2017-01-23T04:59:10.997Z,-6
2017-01-23T05:00:13.947Z,-6
2017-01-23T05:01:16.894Z,-6
2017-01-23T05:02:20.353Z,-6
2017-01-23T05:03:23.299Z,-6
2017-01-23T05:04:26.242Z,-6
2017-01-23T05:05:29.184Z,-6
2017-01-23T05:06:32.637Z,-6
2017-01-23T05:07:35.589Z,-6
2017-01-23T05:08:38.538Z,-6
2017-01-23T05:09:41.489Z,-6
2017-01-23T05:10:44.440Z,-6
2017-01-23T05:11:47.893Z,-6
2017-01-23T05:12:50.839Z,-6
2017-01-23T05:13:53.788Z,-6
2017-01-23T05:14:56.735Z,-6
2017-01-23T05:15:59.685Z,-6
2017-01-23T05:17:03.137Z,-6
2017-01-23T05:19:08.990Z,-6
2017-01-23T05:20:11.931Z,-6
2017-01-23T05:21:15.403Z,-6
2017-01-23T05:22:18.347Z,-6
2017-01-23T05:23:21.290Z,-6
2017-01-23T05:24:24.236Z,-6
2017-01-23T05:25:27.686Z,-6
2017-01-23T05:26:30.632Z,-6
2017-01-23T05:27:33.576Z,-6
2017-01-23T05:28:36.525Z,-6
2017-01-23T05:29:39.478Z,-6
2017-01-23T05:30:42.491Z,-6
2017-01-23T05:31:45.936Z,-6
2017-01-23T05:32:48.888Z,-6
2017-01-23T05:33:51.835Z,-6
2017-01-23T05:34:54.785Z,-6
2017-01-23T05:35:58.231Z,-6
2017-01-23T05:37:01.176Z,-6
2017-01-23T05:38:04.119Z,-6
2017-01-23T05:39:07.072Z,-6
2017-01-23T05:40:10.017Z,-6
2017-01-23T05:41:13.467Z,-6
2017-01-23T05:42:16.410Z,-6
2017-01-23T05:43:19.358Z,-6
2017-01-23T05:44:22.313Z,-6
2017-01-23T05:45:25.326Z,-6.1
2017-01-23T05:46:28.775Z,-6.1
2017-01-23T05:47:31.724Z,-6.1
2017-01-23T05:48:34.669Z,-6
2017-01-23T05:49:37.611Z,-6
2017-01-23T05:50:41.058Z,-6
2017-01-23T05:51:44.003Z,-6
2017-01-23T05:52:46.951Z,-6
2017-01-23T05:53:49.928Z,-6
2017-01-23T05:54:52.882Z,-6
2017-01-23T05:55:56.335Z,-6
2017-01-23T05:56:59.286Z,-6
2017-01-23T05:58:02.234Z,-6
2017-01-23T05:59:05.182Z,-6
2017-01-23T06:00:08.128Z,-6
2017-01-23T06:01:11.644Z,-6
2017-01-23T06:03:17.505Z,-6
2017-01-23T06:04:20.449Z,-6
2017-01-23T06:05:23.397Z,-6
2017-01-23T06:06:26.849Z,-6
2017-01-23T06:07:29.795Z,-6
2017-01-23T06:08:32.742Z,-6
2017-01-23T06:09:35.695Z,-6
2017-01-23T06:10:39.162Z,-6
2017-01-23T06:12:45.023Z,-6
2017-01-23T06:13:47.967Z,-6
2017-01-23T06:14:51.414Z,-6
2017-01-23T06:15:54.366Z,-6
2017-01-23T06:16:57.318Z,-6
2017-01-23T06:18:00.268Z,-6
2017-01-23T06:19:03.214Z,-6
2017-01-23T06:21:09.568Z,-6
2017-01-23T06:22:12.517Z,-6.1
2017-01-23T06:23:15.461Z,-6.1
2017-01-23T06:24:18.912Z,-6.1
2017-01-23T06:25:21.857Z,-6.1
2017-01-23T06:26:24.798Z,-6.1
2017-01-23T06:27:27.739Z,-6.1
2017-01-23T06:28:31.186Z,-6.1
2017-01-23T06:29:34.127Z,-6.1
2017-01-23T06:30:37.074Z,-6.1
2017-01-23T06:31:40.021Z,-6.1
2017-01-23T06:32:43.633Z,-6.1
2017-01-23T06:33:46.077Z,-6
2017-01-23T06:34:49.524Z,-6.1
2017-01-23T06:35:52.471Z,-6
2017-01-23T06:36:55.417Z,-6.1
2017-01-23T06:37:58.366Z,-6.1
2017-01-23T06:39:01.816Z,-6.1
2017-01-23T06:40:04.760Z,-6
2017-01-23T06:41:07.769Z,-6
2017-01-23T06:42:10.732Z,-6
2017-01-23T06:43:13.682Z,-6
2017-01-23T06:44:17.129Z,-6
2017-01-23T06:45:20.075Z,-6
2017-01-23T06:46:23.020Z,-6
2017-01-23T06:47:25.966Z,-6.1
2017-01-23T06:48:28.913Z,-6.1
2017-01-23T06:49:32.363Z,-6
2017-01-23T06:50:35.318Z,-6
2017-01-23T06:51:38.266Z,-6
2017-01-23T06:52:41.215Z,-6
2017-01-23T06:53:44.665Z,-6
2017-01-23T06:54:47.610Z,-6
2017-01-23T06:55:50.560Z,-6
2017-01-23T06:56:53.505Z,-6
2017-01-23T06:57:56.454Z,-6
2017-01-23T06:58:59.905Z,-6
2017-01-23T07:00:02.848Z,-6
2017-01-23T07:01:05.795Z,-6
2017-01-23T07:02:08.740Z,-6
2017-01-23T07:03:12.191Z,-6
2017-01-23T07:04:15.135Z,-6
2017-01-23T07:05:18.076Z,-6
2017-01-23T07:06:21.022Z,-6
2017-01-23T07:07:24.532Z,-6
2017-01-23T07:08:27.480Z,-6
2017-01-23T07:09:30.419Z,-6
2017-01-23T07:10:33.383Z,-6
2017-01-23T07:11:36.333Z,-6
2017-01-23T07:12:39.788Z,-6
2017-01-23T07:13:42.732Z,-6
2017-01-23T07:14:45.676Z,-6
2017-01-23T07:15:48.618Z,-6
2017-01-23T07:16:52.074Z,-6
2017-01-23T07:17:55.088Z,-6
2017-01-23T07:18:58.030Z,-6
2017-01-23T07:20:00.972Z,-6
2017-01-23T07:21:03.916Z,-6
2017-01-23T07:22:07.375Z,-6
2017-01-23T07:23:10.319Z,-6
2017-01-23T07:24:13.266Z,-6
2017-01-23T07:25:16.483Z,-6
2017-01-23T07:26:19.494Z,-6
2017-01-23T07:27:22.437Z,-6
2017-01-23T07:28:25.379Z,-6
2017-01-23T07:29:28.823Z,-6
2017-01-23T07:30:31.777Z,-6
2017-01-23T07:31:34.718Z,-6
2017-01-23T07:32:37.668Z,-6
2017-01-23T07:33:40.620Z,-6
2017-01-23T07:34:44.071Z,-6
2017-01-23T07:35:47.021Z,-6
2017-01-23T07:36:49.962Z,-6
2017-01-23T07:38:56.317Z,-6
2017-01-23T07:39:59.263Z,-6
2017-01-23T07:41:02.206Z,-6
2017-01-23T07:42:05.157Z,-6
2017-01-23T07:43:08.604Z,-6
2017-01-23T07:44:11.546Z,-6
2017-01-23T07:45:14.495Z,-6
2017-01-23T07:46:17.440Z,-6
2017-01-23T07:47:20.883Z,-6
2017-01-23T07:48:23.827Z,-6
2017-01-23T07:49:26.780Z,-6
2017-01-23T07:50:29.723Z,-6
2017-01-23T07:51:33.174Z,-6
2017-01-23T07:52:36.117Z,-6
2017-01-23T07:53:39.063Z,-5.9
2017-01-23T07:54:42.008Z,-5.9
2017-01-23T07:56:48.534Z,-5.9
2017-01-23T07:57:51.479Z,-5.9
2017-01-23T07:58:54.423Z,-5.9
2017-01-23T07:59:57.376Z,-5.9
2017-01-23T08:01:00.319Z,-5.9
2017-01-23T08:02:03.768Z,-5.9
2017-01-23T08:03:06.712Z,-5.9
2017-01-23T08:04:09.657Z,-5.9
2017-01-23T08:05:12.603Z,-5.9
2017-01-23T08:06:16.047Z,-5.9
2017-01-23T08:07:18.995Z,-5.9
2017-01-23T08:08:21.962Z,-5.9
2017-01-23T08:09:24.915Z,-5.9
2017-01-23T08:10:28.363Z,-5.9
2017-01-23T08:11:31.311Z,-5.9
2017-01-23T08:12:34.257Z,-5.9
2017-01-23T08:13:37.203Z,-5.9
2017-01-23T08:14:40.650Z,-5.9
2017-01-23T08:15:43.590Z,-5.9
2017-01-23T08:16:46.534Z,-5.9
2017-01-23T08:17:49.646Z,-5.9
2017-01-23T08:18:52.586Z,-5.9
2017-01-23T08:19:55.531Z,-5.9
2017-01-23T08:20:58.980Z,-5.9
2017-01-23T08:22:01.924Z,-5.9
2017-01-23T08:23:04.868Z,-5.9
2017-01-23T08:24:07.818Z,-5.9
2017-01-23T08:25:11.269Z,-5.9
2017-01-23T08:26:14.214Z,-5.9
2017-01-23T08:27:17.161Z,-5.9
2017-01-23T08:28:20.108Z,-5.9
2017-01-23T08:29:23.553Z,-5.9
2017-01-23T08:30:26.507Z,-5.9
2017-01-23T08:31:29.448Z,-5.9
2017-01-23T08:32:32.392Z,-5.9
2017-01-23T08:33:35.841Z,-5.9
2017-01-23T08:34:38.785Z,-5.9
2017-01-23T08:35:41.897Z,-5.8
2017-01-23T08:36:44.843Z,-5.8
2017-01-23T08:37:47.790Z,-5.8
2017-01-23T08:38:51.234Z,-5.8
2017-01-23T08:39:54.180Z,-5.9
2017-01-23T08:40:57.123Z,-5.9
2017-01-23T08:42:00.070Z,-5.9
2017-01-23T08:43:03.518Z,-5.9
2017-01-23T08:44:06.459Z,-5.9
2017-01-23T08:45:09.403Z,-5.8
2017-01-23T08:46:12.345Z,-5.8
2017-01-23T08:47:15.789Z,-5.8
2017-01-23T08:48:18.733Z,-5.8
2017-01-23T08:49:21.683Z,-5.8
2017-01-23T08:50:24.692Z,-5.8
2017-01-23T08:51:27.636Z,-5.8
2017-01-23T08:52:31.085Z,-5.8
2017-01-23T08:53:34.092Z,-5.8
2017-01-23T08:54:37.040Z,-5.8
2017-01-23T08:55:39.983Z,-5.8
2017-01-23T08:56:43.433Z,-5.8
2017-01-23T08:57:46.377Z,-5.8
2017-01-23T08:58:49.321Z,-5.8
2017-01-23T08:59:52.270Z,-5.8
2017-01-23T09:00:55.718Z,-5.8
2017-01-23T09:01:58.661Z,-5.8
2017-01-23T09:03:01.606Z,-5.8
2017-01-23T09:04:04.717Z,-5.8
2017-01-23T09:05:07.661Z,-5.8
2017-01-23T09:06:11.109Z,-5.8
2017-01-23T09:07:14.057Z,-5.8
2017-01-23T09:08:17.001Z,-5.8
2017-01-23T09:09:19.953Z,-5.8
2017-01-23T09:10:23.400Z,-5.8
2017-01-23T09:11:26.348Z,-5.8
2017-01-23T09:12:29.320Z,-5.8
2017-01-23T09:13:32.272Z,-5.8
2017-01-23T09:14:35.720Z,-5.8
2017-01-23T09:15:38.670Z,-5.8
2017-01-23T09:16:41.621Z,-5.8
2017-01-23T09:17:44.566Z,-5.8
2017-01-23T09:18:48.019Z,-5.8
2017-01-23T09:19:50.964Z,-5.8
2017-01-23T09:20:53.909Z,-5.8
2017-01-23T09:21:56.850Z,-5.8
2017-01-23T09:23:00.299Z,-5.8
2017-01-23T09:24:03.250Z,-5.8
2017-01-23T09:25:06.197Z,-5.8
2017-01-23T09:26:09.139Z,-5.8
2017-01-23T09:27:12.589Z,-5.7
2017-01-23T09:28:15.545Z,-5.8
2017-01-23T09:29:18.490Z,-5.8
2017-01-23T09:30:21.432Z,-5.8
2017-01-23T09:31:24.882Z,-5.7
2017-01-23T09:32:27.822Z,-5.7
2017-01-23T09:33:30.793Z,-5.7
2017-01-23T09:34:33.737Z,-5.7
2017-01-23T09:35:37.183Z,-5.7
2017-01-23T09:36:40.129Z,-5.7
2017-01-23T09:37:43.082Z,-5.7
2017-01-23T09:38:46.030Z,-5.7
2017-01-23T09:39:49.480Z,-5.7
2017-01-23T09:40:52.419Z,-5.7
2017-01-23T09:41:55.369Z,-5.7
2017-01-23T09:42:58.322Z,-5.7
2017-01-23T09:44:01.767Z,-5.7
2017-01-23T09:45:04.715Z,-5.7
2017-01-23T09:46:07.660Z,-5.7
2017-01-23T09:47:10.604Z,-5.6
2017-01-23T09:48:14.065Z,-5.6
2017-01-23T09:49:17.018Z,-5.6
2017-01-23T09:50:19.962Z,-5.6
2017-01-23T09:51:22.907Z,-5.6
2017-01-23T09:53:29.269Z,-5.6
2017-01-23T09:54:32.216Z,-5.6
2017-01-23T09:55:35.665Z,-5.6
2017-01-23T09:56:38.615Z,-5.6
2017-01-23T09:57:41.558Z,-5.6
2017-01-23T09:58:44.499Z,-5.6
2017-01-23T10:00:50.852Z,-5.6
2017-01-23T10:01:53.800Z,-5.6
2017-01-23T10:02:56.745Z,-5.6
2017-01-23T10:04:00.196Z,-5.6
2017-01-23T10:05:03.141Z,-5.6
2017-01-23T10:06:06.080Z,-5.6
2017-01-23T10:07:09.020Z,-5.6
2017-01-23T10:08:12.479Z,-5.6
2017-01-23T10:09:15.420Z,-5.6
2017-01-23T10:10:18.368Z,-5.6
2017-01-23T10:11:21.815Z,-5.6
2017-01-23T10:12:24.760Z,-5.6
2017-01-23T10:13:27.703Z,-5.6
2017-01-23T10:15:34.056Z,-5.6
2017-01-23T10:16:37.006Z,-5.6
2017-01-23T10:17:39.955Z,-5.6
2017-01-23T10:18:42.899Z,-5.6
2017-01-23T10:19:46.343Z,-5.6
2017-01-23T10:20:49.285Z,-5.6
2017-01-23T10:21:52.228Z,-5.6
2017-01-23T10:22:55.672Z,-5.6
2017-01-23T10:23:58.643Z,-5.6
2017-01-23T10:25:01.588Z,-5.6
2017-01-23T10:26:04.595Z,-5.6
2017-01-23T10:27:07.544Z,-5.6
2017-01-23T10:28:10.991Z,-5.5
2017-01-23T10:29:13.939Z,-5.5
2017-01-23T10:30:16.882Z,-5.5
2017-01-23T10:31:19.820Z,-5.5
2017-01-23T10:32:23.268Z,-5.5
2017-01-23T10:33:26.214Z,-5.5
2017-01-23T10:34:29.158Z,-5.5
2017-01-23T10:35:32.607Z,-5.5
2017-01-23T10:36:35.547Z,-5.5
2017-01-23T10:37:38.485Z,-5.5
2017-01-23T10:38:41.454Z,-5.5
2017-01-23T10:39:44.900Z,-5.5
2017-01-23T10:41:50.756Z,-5.5
2017-01-23T10:42:53.706Z,-5.5
2017-01-23T10:43:57.155Z,-5.5
2017-01-23T10:45:00.095Z,-5.5
2017-01-23T10:46:03.047Z,-5.5
2017-01-23T10:47:06.498Z,-5.5
2017-01-23T10:48:09.441Z,-5.5
2017-01-23T10:49:12.385Z,-5.5
2017-01-23T10:50:15.331Z,-5.5
2017-01-23T10:51:18.777Z,-5.5
2017-01-23T10:52:21.725Z,-5.5
2017-01-23T10:53:24.682Z,-5.5
2017-01-23T10:54:27.626Z,-5.5
2017-01-23T10:55:31.081Z,-5.5
2017-01-23T10:56:34.032Z,-5.5
2017-01-23T10:57:36.973Z,-5.5
2017-01-23T10:58:40.417Z,-5.5
2017-01-23T10:59:43.365Z,-5.4
2017-01-23T11:00:46.308Z,-5.4
2017-01-23T11:01:49.256Z,-5.4
2017-01-23T11:03:55.637Z,-5.4
2017-01-23T11:04:58.584Z,-5.4
2017-01-23T11:06:01.529Z,-5.4
2017-01-23T11:08:07.887Z,-5.4
2017-01-23T11:09:10.835Z,-5.4
2017-01-23T11:10:14.282Z,-5.4
2017-01-23T11:11:17.293Z,-5.4
2017-01-23T11:12:20.239Z,-5.4
2017-01-23T11:13:23.184Z,-5.4
2017-01-23T11:14:26.634Z,-5.4
2017-01-23T11:16:32.555Z,-5.3
2017-01-23T11:17:35.497Z,-5.4
2017-01-23T11:18:38.950Z,-5.4
2017-01-23T11:19:41.899Z,-5.3
2017-01-23T11:20:44.842Z,-5.3
2017-01-23T11:21:47.790Z,-5.3
2017-01-23T11:22:51.245Z,-5.3
2017-01-23T11:23:54.192Z,-5.3
2017-01-23T11:24:57.137Z,-5.3
2017-01-23T11:26:00.583Z,-5.3
2017-01-23T11:27:03.534Z,-5.3
2017-01-23T11:28:06.478Z,-5.3
2017-01-23T11:29:09.423Z,-5.3
2017-01-23T11:30:12.869Z,-5.3
2017-01-23T11:31:15.817Z,-5.3
2017-01-23T11:32:18.772Z,-5.3
2017-01-23T11:34:25.128Z,-5.3
2017-01-23T11:35:28.074Z,-5.3
2017-01-23T11:36:31.017Z,-5.3
2017-01-23T11:37:34.647Z,-5.3
2017-01-23T11:38:37.593Z,-5.3
2017-01-23T11:39:40.540Z,-5.3
2017-01-23T11:40:43.491Z,-5.3
2017-01-23T11:41:46.433Z,-5.3
2017-01-23T11:42:49.882Z,-5.3
2017-01-23T11:43:52.825Z,-5.3
2017-01-23T11:44:55.777Z,-5.3
2017-01-23T11:45:58.783Z,-5.3
2017-01-23T11:47:02.230Z,-5.3
2017-01-23T11:48:05.172Z,-5.3
2017-01-23T11:49:08.122Z,-5.3
2017-01-23T11:50:11.065Z,-5.3
2017-01-23T11:51:14.515Z,-5.3
2017-01-23T11:52:17.461Z,-5.3
2017-01-23T11:53:20.409Z,-5.3
2017-01-23T11:54:23.855Z,-5.3
2017-01-23T11:55:26.807Z,-5.3
2017-01-23T11:56:29.755Z,-5.3
2017-01-23T11:57:32.700Z,-5.3
2017-01-23T11:58:36.149Z,-5.3
2017-01-23T11:59:39.089Z,-5.2
2017-01-23T12:00:42.032Z,-5.2
2017-01-23T12:01:45.473Z,-5.2
2017-01-23T12:02:48.414Z,-5.2
2017-01-23T12:03:51.365Z,-5.2
2017-01-23T12:04:54.305Z,-5.2
2017-01-23T12:05:57.782Z,-5.2
2017-01-23T12:07:00.738Z,-5.3
2017-01-23T12:08:03.684Z,-5.2
2017-01-23T12:09:06.650Z,-5.2
2017-01-23T12:10:10.105Z,-5.2
2017-01-23T12:11:13.051Z,-5.2
2017-01-23T12:12:16.171Z,-5.2
2017-01-23T12:13:19.117Z,-5.2
2017-01-23T12:14:22.063Z,-5.2
2017-01-23T12:15:25.513Z,-5.2
2017-01-23T12:16:28.463Z,-5.2
2017-01-23T12:17:31.403Z,-5.2
2017-01-23T12:18:34.846Z,-5.2
2017-01-23T12:19:37.789Z,-5.2
2017-01-23T12:20:40.731Z,-5.1
2017-01-23T12:21:43.677Z,-5.2
2017-01-23T12:22:47.124Z,-5.2
2017-01-23T12:23:50.075Z,-5.2
2017-01-23T12:24:53.021Z,-5.1
2017-01-23T12:25:56.466Z,-5.2
2017-01-23T12:26:59.426Z,-5.2
2017-01-23T12:28:02.371Z,-5.2
2017-01-23T12:29:05.323Z,-5.2
2017-01-23T12:30:08.772Z,-5.1
2017-01-23T12:31:11.719Z,-5.1
2017-01-23T12:32:14.664Z,-5.1
2017-01-23T12:33:17.609Z,-5.1
2017-01-23T12:34:21.056Z,-5.1
2017-01-23T12:35:24.004Z,-5.1
2017-01-23T12:36:26.951Z,-5.1
2017-01-23T12:37:30.398Z,-5.1
2017-01-23T12:38:33.346Z,-5.1
2017-01-23T12:39:36.298Z,-5.1
2017-01-23T12:40:39.237Z,-5.1
2017-01-23T12:41:42.749Z,-5.1
2017-01-23T12:42:45.696Z,-5.1
2017-01-23T12:43:48.645Z,-5.1
2017-01-23T12:44:51.586Z,-5.1
2017-01-23T12:45:55.037Z,-5.1
2017-01-23T12:46:57.987Z,-5.1
2017-01-23T12:48:00.935Z,-5.1
2017-01-23T12:49:04.382Z,-5.1
2017-01-23T12:50:07.328Z,-5.1
2017-01-23T12:51:10.333Z,-5.1
2017-01-23T12:52:13.285Z,-5.1
2017-01-23T12:53:16.734Z,-5.1
2017-01-23T12:54:19.679Z,-5.1
2017-01-23T12:55:22.619Z,-5.1
2017-01-23T12:56:25.575Z,-5.1
2017-01-23T12:57:29.023Z,-5.1
2017-01-23T12:58:31.966Z,-5.1
2017-01-23T12:59:34.909Z,-5.1
2017-01-23T13:00:38.358Z,-5.1
2017-01-23T13:01:41.314Z,-5.1
2017-01-23T13:02:44.263Z,-5.1
2017-01-23T13:03:47.267Z,-5.1
2017-01-23T13:04:50.716Z,-5.1
2017-01-23T13:06:56.599Z,-5.1
2017-01-23T13:07:59.543Z,-5.1
2017-01-23T13:09:02.998Z,-5
2017-01-23T13:10:05.946Z,-5
2017-01-23T13:11:08.889Z,-5
2017-01-23T13:12:12.361Z,-5
2017-01-23T13:13:15.321Z,-5
2017-01-23T13:14:18.265Z,-5
2017-01-23T13:15:21.218Z,-5
2017-01-23T13:16:24.663Z,-5
2017-01-23T13:17:27.603Z,-5
2017-01-23T13:18:30.544Z,-5
2017-01-23T13:19:33.488Z,-5
2017-01-23T13:20:36.938Z,-5
2017-01-23T13:21:39.891Z,-5
2017-01-23T13:22:42.841Z,-5
2017-01-23T13:23:46.290Z,-5
2017-01-23T13:24:49.237Z,-5
2017-01-23T13:25:52.185Z,-5
2017-01-23T13:26:55.140Z,-5
2017-01-23T13:27:58.589Z,-5
2017-01-23T13:29:01.533Z,-5
2017-01-23T13:30:04.485Z,-5
2017-01-23T13:31:07.432Z,-5
2017-01-23T13:32:10.880Z,-5
2017-01-23T13:33:13.832Z,-5
2017-01-23T13:34:16.772Z,-5
2017-01-23T13:35:20.219Z,-5
2017-01-23T13:36:23.169Z,-5
2017-01-23T13:37:26.110Z,-5
2017-01-23T13:38:29.059Z,-5
2017-01-23T13:39:32.504Z,-5
2017-01-23T13:41:38.355Z,-5
2017-01-23T13:42:41.800Z,-5
2017-01-23T13:43:44.743Z,-5
2017-01-23T13:44:47.688Z,-5
2017-01-23T13:45:51.149Z,-5
2017-01-23T13:46:54.093Z,-5
2017-01-23T13:47:57.040Z,-5
2017-01-23T13:48:59.979Z,-5
2017-01-23T13:50:03.428Z,-5
2017-01-23T13:51:06.371Z,-5
2017-01-23T13:52:09.323Z,-5
2017-01-23T13:53:12.766Z,-5
2017-01-23T13:54:15.707Z,-5
2017-01-23T13:55:18.652Z,-5
2017-01-23T13:56:21.600Z,-5
2017-01-23T13:57:25.048Z,-5
2017-01-23T13:58:27.996Z,-5
2017-01-23T13:59:30.939Z,-5
2017-01-23T14:00:34.386Z,-5
2017-01-23T14:01:37.331Z,-5
2017-01-23T14:02:40.276Z,-5
2017-01-23T14:03:43.216Z,-5
2017-01-23T14:04:46.667Z,-4.9
2017-01-23T14:05:49.610Z,-5
2017-01-23T14:06:52.557Z,-5
2017-01-23T14:07:56.066Z,-4.9
2017-01-23T14:08:59.007Z,-4.9
2017-01-23T14:10:01.952Z,-4.9
2017-01-23T14:11:04.893Z,-4.9
2017-01-23T14:13:11.256Z,-4.9
2017-01-23T14:14:14.270Z,-4.9
2017-01-23T14:15:17.213Z,-4.9
2017-01-23T14:16:20.655Z,-4.9
2017-01-23T14:18:26.504Z,-4.9
2017-01-23T14:19:30.023Z,-4.9
2017-01-23T14:20:32.966Z,-4.9
2017-01-23T14:21:35.908Z,-4.9
2017-01-23T14:22:38.854Z,-4.9
2017-01-23T14:23:42.300Z,-4.9
2017-01-23T14:24:45.241Z,-4.9
2017-01-23T14:25:48.190Z,-4.9
2017-01-23T14:26:51.135Z,-4.9
2017-01-23T14:27:54.589Z,-4.9
2017-01-23T14:28:57.532Z,-4.9
2017-01-23T14:30:00.475Z,-4.9
2017-01-23T14:31:03.923Z,-4.9
2017-01-23T14:32:06.865Z,-4.9
2017-01-23T14:33:09.809Z,-4.9
2017-01-23T14:34:12.755Z,-4.9
2017-01-23T14:35:16.206Z,-4.9
2017-01-23T14:36:19.148Z,-4.9
2017-01-23T14:37:22.088Z,-4.9
2017-01-23T14:38:25.555Z,-4.9
2017-01-23T14:39:28.504Z,-4.9
2017-01-23T14:40:31.450Z,-4.8
2017-01-23T14:41:34.391Z,-4.8